Terminal Aerodrome Forecast
Issued by NWS

Home | Current Version | Previous Version | Text Only | Print | Product List | Glossary On
Versions: 1 2 3 4 5 6 7 8 9 10 11 12 13 14 15 16 17
563
FTUS43 KAPX 290542
TAFPLN
TAF
KPLN 290542Z 2906/3006 00000KT P6SM FEW100
     FM290800 00000KT 3SM BR SCT002
      TEMPO 2908/2911 3/4SM BR BKN002
     FM291400 24008KT P6SM SCT100
     FM291900 24012G22KT P6SM VCSH BKN060
     FM292300 26008KT P6SM BKN060=

USA.gov is the U.S. government's official web portal to all federal, state and local government web resources and services.